Time;durP1;ratioP1;P1;durP2;ratioP2;P2;SDS_P1;SDS_P2;PMS_P1;PMS_P2;Temp;Humidity;BMP_temperature;BMP_pressure;BME280_temperature;BME280_humidity;BME280_pressure;Samples;Min_cycle;Max_cycle;Signal;HPM_P1;HPM_P2
2023/12/20 00:02:02;;;;;;;2.58;2.38;;;;;;;6.43;76.57;98037.38;5078400;28;20283;-72
2023/12/20 00:04:29;;;;;;;2.38;2.17;;;;;;;6.31;77.40;98034.22;5082179;28;20254;-73
2023/12/20 00:06:55;;;;;;;2.33;2.22;;;;;;;6.36;77.40;98034.53;5081251;28;20741;-74
2023/12/20 00:09:23;;;;;;;2.30;2.10;;;;;;;6.55;76.92;98024.34;5081158;28;20693;-74
2023/12/20 00:11:49;;;;;;;2.13;1.98;;;;;;;6.60;76.96;98020.13;5115228;27;20230;-73
2023/12/20 00:14:16;;;;;;;2.20;2.00;;;;;;;6.53;77.46;98027.19;5078464;28;20279;-75
2023/12/20 00:16:44;;;;;;;2.10;2.00;;;;;;;6.45;78.17;98018.38;5076019;28;20291;-74
2023/12/20 00:19:10;;;;;;;2.50;2.30;;;;;;;6.54;77.93;97995.78;5082282;28;20295;-74
2023/12/20 00:21:37;;;;;;;2.17;2.08;;;;;;;6.65;78.30;98004.28;5081669;28;20269;-74
2023/12/20 00:24:04;;;;;;;1.90;1.80;;;;;;;6.49;78.78;98004.41;5082324;28;20290;-74
2023/12/20 00:26:32;;;;;;;2.33;2.08;;;;;;;6.44;79.83;98003.25;5082870;28;20629;-74
2023/12/20 00:28:59;;;;;;;2.40;2.20;;;;;;;6.28;80.47;97996.09;5079856;28;20697;-74
2023/12/20 00:31:25;;;;;;;2.10;1.95;;;;;;;6.37;80.80;98005.81;5081039;28;20295;-74
2023/12/20 00:33:53;;;;;;;2.80;2.10;;;;;;;6.33;82.34;98016.06;5081639;28;20204;-73
2023/12/20 00:36:20;;;;;;;2.00;1.90;;;;;;;6.37;81.38;97987.00;5082543;28;20243;-74
2023/12/20 00:38:46;;;;;;;3.03;2.30;;;;;;;6.16;82.34;98001.06;5081878;28;20267;-74
2023/12/20 00:41:13;;;;;;;2.88;2.38;;;;;;;6.04;83.84;97994.38;5080851;28;20257;-74
2023/12/20 00:43:39;;;;;;;2.45;2.25;;;;;;;5.96;85.20;97987.19;5074828;28;20254;-73
2023/12/20 00:46:06;;;;;;;2.40;2.20;;;;;;;6.05;85.13;97985.31;5076209;28;20287;-73
2023/12/20 00:48:32;;;;;;;2.70;2.50;;;;;;;5.98;84.55;97987.84;5079905;28;20307;-73
2023/12/20 00:51:00;;;;;;;2.67;2.45;;;;;;;6.06;84.70;98003.94;5079755;28;20250;-73
2023/12/20 00:53:27;;;;;;;2.60;2.40;;;;;;;5.96;85.44;97999.78;5082012;28;20287;-73
2023/12/20 00:55:54;;;;;;;2.50;2.30;;;;;;;5.79;86.28;97998.16;5080783;28;20208;-73
2023/12/20 00:58:20;;;;;;;3.00;2.80;;;;;;;5.79;86.46;97995.47;5081697;28;20279;-74
2023/12/20 01:00:47;;;;;;;2.78;2.58;;;;;;;5.93;86.71;98000.13;5114336;27;20290;-73
2023/12/20 01:03:15;;;;;;;3.50;2.60;;;;;;;6.05;86.21;97999.59;5081058;28;20232;-73
2023/12/20 01:05:41;;;;;;;2.35;2.15;;;;;;;5.79;87.46;97995.47;5081579;28;20236;-74
2023/12/20 01:08:09;;;;;;;2.83;2.53;;;;;;;5.73;87.71;97997.00;5079765;28;20719;-74
2023/12/20 01:10:36;;;;;;;2.33;2.13;;;;;;;5.81;87.80;97996.97;5080236;28;20700;-74
2023/12/20 01:13:02;;;;;;;2.97;2.72;;;;;;;5.68;88.87;98004.72;5081306;28;20337;-75
2023/12/20 01:15:29;;;;;;;2.88;2.67;;;;;;;5.76;88.76;98001.19;5080573;28;20209;-74
2023/12/20 01:17:56;;;;;;;2.88;2.63;;;;;;;5.64;89.77;97989.97;5083049;28;20319;-74
2023/12/20 01:20:23;;;;;;;2.80;2.60;;;;;;;5.65;89.20;98003.22;5079950;28;20292;-74
2023/12/20 01:22:50;;;;;;;3.22;2.92;;;;;;;5.52;91.03;97994.03;5079570;28;20240;-74
2023/12/20 01:25:17;;;;;;;2.90;2.70;;;;;;;5.60;91.08;98002.03;5080178;28;20343;-74
2023/12/20 01:27:45;;;;;;;2.70;2.50;;;;;;;5.50;91.89;97998.75;5079948;28;20211;-75
2023/12/20 01:30:12;;;;;;;2.80;2.60;;;;;;;5.57;91.45;98013.13;5078660;28;20327;-75
2023/12/20 01:32:39;;;;;;;3.30;3.00;;;;;;;5.68;90.95;98004.72;5079732;28;20284;-75
2023/12/20 01:35:06;;;;;;;3.58;3.28;;;;;;;5.56;91.29;98014.13;5081965;28;20290;-75
2023/12/20 01:37:32;;;;;;;3.38;3.17;;;;;;;5.59;92.37;98011.09;5080786;28;20206;-75
2023/12/20 01:39:59;;;;;;;3.22;2.95;;;;;;;5.50;92.83;98012.16;5114666;27;20642;-75
2023/12/20 01:42:27;;;;;;;3.00;2.80;;;;;;;5.66;91.86;98012.09;5095215;28;20211;-74
2023/12/20 01:44:54;;;;;;;3.40;3.10;;;;;;;5.62;91.85;97991.97;5079049;28;20654;-75
2023/12/20 01:47:21;;;;;;;3.35;3.15;;;;;;;5.76;92.16;98019.97;5078156;28;20208;-75
2023/12/20 01:49:48;;;;;;;3.70;3.40;;;;;;;5.85;91.77;98009.00;5080196;28;20296;-75
2023/12/20 01:52:14;;;;;;;3.67;3.38;;;;;;;5.87;92.27;98008.84;5081467;28;20193;-75
2023/12/20 01:54:41;;;;;;;3.92;3.38;;;;;;;5.74;93.11;98002.19;5080862;28;20207;-75
2023/12/20 01:57:08;;;;;;;3.10;2.80;;;;;;;5.76;93.12;97995.81;5093770;28;20720;-75
2023/12/20 01:59:38;;;;;;;4.72;3.03;;;;;;;5.88;92.47;98011.34;5078633;28;20231;-74
2023/12/20 02:02:05;;;;;;;3.00;2.80;;;;;;;5.76;93.39;98006.56;5080630;28;20323;-75
2023/12/20 02:04:31;;;;;;;2.80;2.60;;;;;;;5.80;93.32;98002.50;5078421;28;20303;-74
2023/12/20 02:06:58;;;;;;;2.78;2.58;;;;;;;5.90;93.33;97995.94;5079555;28;20203;-74
2023/12/20 02:09:25;;;;;;;3.00;2.80;;;;;;;5.88;93.38;98000.63;5080261;28;20731;-75
2023/12/20 02:11:52;;;;;;;3.47;3.22;;;;;;;5.90;93.02;97992.41;5078667;28;20716;-74
2023/12/20 02:14:19;;;;;;;2.63;2.42;;;;;;;5.89;93.49;97998.78;5079549;28;20291;-74
2023/12/20 02:16:46;;;;;;;2.80;2.60;;;;;;;5.89;93.43;97991.56;5076435;28;20697;-75
2023/12/20 02:19:14;;;;;;;3.63;3.33;;;;;;;5.82;94.08;98000.50;5074904;28;20220;-74
2023/12/20 02:21:42;;;;;;;3.33;3.03;;;;;;;5.78;94.10;98004.53;5076238;28;20246;-74
2023/12/20 02:24:09;;;;;;;2.92;2.72;;;;;;;5.67;94.67;98005.72;5078251;28;20736;-74
2023/12/20 02:26:35;;;;;;;3.20;2.80;;;;;;;5.77;94.25;98003.69;5095778;28;20211;-74
2023/12/20 02:29:02;;;;;;;2.03;1.90;;;;;;;5.70;94.66;98003.53;5078580;28;20684;-74
2023/12/20 02:31:29;;;;;;;2.38;2.25;;;;;;;5.77;94.51;97998.31;5079469;28;20239;-74
2023/12/20 02:33:55;;;;;;;1.88;1.77;;;;;;;5.78;94.54;98004.53;5078946;28;20238;-74
2023/12/20 02:36:22;;;;;;;1.80;1.70;;;;;;;5.75;94.89;97997.66;5078660;28;20239;-74
2023/12/20 02:38:50;;;;;;;1.67;1.58;;;;;;;5.69;94.47;98001.03;5075851;28;20243;-74
2023/12/20 02:41:18;;;;;;;1.20;1.10;;;;;;;5.70;94.44;97997.34;5112994;27;20199;-74
2023/12/20 02:43:44;;;;;;;1.10;1.05;;;;;;;5.68;94.21;97997.50;5078407;28;20206;-74
2023/12/20 02:46:12;;;;;;;1.13;1.02;;;;;;;5.62;94.11;98000.88;5080396;28;20289;-74
2023/12/20 02:48:39;;;;;;;0.93;0.80;;;;;;;5.66;93.98;98010.25;5085654;28;20247;-74
2023/12/20 02:51:05;;;;;;;1.45;1.00;;;;;;;5.63;93.57;97999.03;5077882;28;20232;-74
2023/12/20 02:53:32;;;;;;;1.50;0.93;;;;;;;5.46;93.75;97997.41;5079499;28;20291;-74
2023/12/20 02:56:00;;;;;;;0.85;0.85;;;;;;;5.50;93.51;97998.75;5078577;28;20203;-74
2023/12/20 02:58:27;;;;;;;0.60;0.60;;;;;;;5.59;92.57;98006.56;5078369;28;20340;-74
2023/12/20 03:00:54;;;;;;;0.80;0.80;;;;;;;5.53;93.26;98001.06;5079095;28;20196;-74
2023/12/20 03:03:20;;;;;;;0.80;0.77;;;;;;;5.54;92.81;98005.41;5077219;28;20211;-74
2023/12/20 03:05:47;;;;;;;0.88;0.80;;;;;;;5.33;93.41;97979.97;5078437;28;20250;-74
2023/12/20 03:08:14;;;;;;;0.98;0.85;;;;;;;5.38;93.33;97999.09;5077842;28;20297;-74
2023/12/20 03:10:40;;;;;;;0.80;0.80;;;;;;;5.39;93.25;98007.97;5078899;28;20294;-74
2023/12/20 03:13:08;;;;;;;0.90;0.80;;;;;;;5.32;93.23;98005.13;5077991;28;20294;-74
2023/12/20 03:15:36;;;;;;;0.80;0.80;;;;;;;5.32;93.25;98009.66;5073521;28;20230;-74
2023/12/20 03:18:02;;;;;;;1.05;0.80;;;;;;;5.29;93.51;98010.00;5078536;28;20199;-74
2023/12/20 03:20:31;;;;;;;0.80;0.80;;;;;;;5.39;92.79;98019.53;5112788;28;20291;-74
2023/12/20 03:22:58;;;;;;;1.00;0.93;;;;;;;5.35;92.52;98012.84;5077033;28;20216;-74
2023/12/20 03:25:24;;;;;;;0.82;0.80;;;;;;;5.24;93.21;98026.59;5078822;28;20603;-74
2023/12/20 03:27:51;;;;;;;0.82;0.77;;;;;;;5.25;92.73;98019.38;5076912;28;20295;-75
2023/12/20 03:30:19;;;;;;;0.75;0.75;;;;;;;5.24;92.51;98018.53;5081914;28;20311;-74
2023/12/20 03:32:46;;;;;;;1.17;1.08;;;;;;;5.27;93.01;98018.22;5082874;28;20771;-74
2023/12/20 03:35:12;;;;;;;0.70;0.70;;;;;;;5.25;92.88;98022.91;5082563;28;20204;-74
2023/12/20 03:37:39;;;;;;;0.70;0.70;;;;;;;5.11;92.09;98001.31;5095211;28;20261;-74
2023/12/20 03:40:06;;;;;;;1.00;0.90;;;;;;;5.25;92.99;98025.59;5127225;27;20299;-74
2023/12/20 03:42:33;;;;;;;0.90;0.70;;;;;;;5.34;92.30;98029.09;5081834;28;20291;-74
2023/12/20 03:44:59;;;;;;;1.00;1.00;;;;;;;5.29;92.48;98026.09;5086217;28;20256;-74
2023/12/20 03:47:27;;;;;;;0.90;0.90;;;;;;;4.96;93.12;97985.03;5080183;28;20280;-73
2023/12/20 03:49:54;;;;;;;0.80;0.80;;;;;;;5.17;93.17;98009.53;5080774;28;20307;-73
2023/12/20 03:52:21;;;;;;;0.98;0.98;;;;;;;5.28;92.91;98024.41;5082435;28;20772;-73
2023/12/20 03:54:48;;;;;;;1.55;1.00;;;;;;;5.21;92.88;98034.13;5083137;28;20200;-73
2023/12/20 03:57:15;;;;;;;0.80;0.80;;;;;;;5.32;92.29;98037.31;5081786;28;20279;-74
2023/12/20 03:59:42;;;;;;;0.80;0.70;;;;;;;5.19;92.46;98028.97;5081219;28;20204;-75
2023/12/20 04:02:09;;;;;;;0.68;0.68;;;;;;;5.17;93.33;98030.97;5081038;28;20200;-74
2023/12/20 04:04:37;;;;;;;0.70;0.70;;;;;;;5.17;93.23;98035.50;5079622;28;20291;-75
2023/12/20 04:07:04;;;;;;;0.80;0.77;;;;;;;5.24;92.83;98034.63;5081886;28;20287;-75
2023/12/20 04:09:31;;;;;;;1.17;0.73;;;;;;;5.37;92.44;98026.94;5083814;28;20226;-75
2023/12/20 04:11:58;;;;;;;0.70;0.70;;;;;;;5.25;92.41;98033.63;5082947;28;20199;-74
2023/12/20 04:14:25;;;;;;;0.93;0.93;;;;;;;5.17;92.57;98028.31;5082382;28;20268;-74
2023/12/20 04:16:52;;;;;;;1.42;1.08;;;;;;;5.08;93.09;98029.31;5082881;28;20237;-74
2023/12/20 04:19:18;;;;;;;0.90;0.90;;;;;;;5.18;93.05;98035.34;5113968;27;20235;-74
2023/12/20 04:21:46;;;;;;;0.90;0.65;;;;;;;5.07;93.01;98038.34;5080098;28;20302;-74
2023/12/20 04:24:13;;;;;;;0.90;0.90;;;;;;;5.03;92.86;98037.00;5081845;28;20299;-74
2023/12/20 04:26:40;;;;;;;0.90;0.80;;;;;;;4.92;93.23;98042.69;5082632;28;20270;-74
2023/12/20 04:29:06;;;;;;;0.90;0.90;;;;;;;4.67;93.60;97999.78;5083158;28;20200;-75
2023/12/20 04:31:33;;;;;;;0.70;0.70;;;;;;;5.08;93.35;98053.44;5081092;28;20934;-75
2023/12/20 04:34:00;;;;;;;1.20;1.10;;;;;;;5.14;92.57;98035.84;5082749;28;20246;-75
2023/12/20 04:36:29;;;;;;;0.80;0.80;;;;;;;5.13;92.47;98053.78;5080919;28;20867;-74
2023/12/20 04:38:57;;;;;;;0.90;0.80;;;;;;;5.09;92.64;98057.81;5080857;28;20210;-75
2023/12/20 04:41:24;;;;;;;0.70;0.70;;;;;;;5.03;92.54;98063.81;5078605;28;20295;-74
2023/12/20 04:43:51;;;;;;;0.75;0.75;;;;;;;5.05;92.88;98061.81;5079600;28;20226;-74
2023/12/20 04:46:17;;;;;;;1.00;0.90;;;;;;;5.11;92.72;98069.19;5082722;28;20315;-75
2023/12/20 04:48:44;;;;;;;1.33;0.90;;;;;;;4.99;92.56;98060.63;5080201;28;20296;-74
2023/12/20 04:51:10;;;;;;;1.27;0.90;;;;;;;5.02;92.99;98072.88;5082330;28;20295;-75
2023/12/20 04:53:37;;;;;;;1.25;0.90;;;;;;;5.07;92.78;98071.38;5081392;28;20278;-75
2023/12/20 04:56:07;;;;;;;1.30;1.00;;;;;;;5.16;91.79;98072.22;5079113;28;20282;-74
2023/12/20 04:58:33;;;;;;;0.80;0.80;;;;;;;5.15;92.31;98072.38;5097540;28;20292;-74
2023/12/20 05:01:00;;;;;;;1.05;0.90;;;;;;;5.20;92.21;98078.91;5081429;28;20193;-74
2023/12/20 05:03:27;;;;;;;0.90;0.80;;;;;;;5.11;92.63;98066.53;5081124;28;20270;-75
2023/12/20 05:05:54;;;;;;;0.80;0.80;;;;;;;5.20;92.49;98068.16;5097993;27;20296;-75
2023/12/20 05:08:20;;;;;;;1.10;1.00;;;;;;;5.19;92.79;98074.56;5080883;28;20303;-75
2023/12/20 05:10:47;;;;;;;1.10;1.00;;;;;;;5.01;92.48;98061.31;5075918;28;20975;-75
2023/12/20 05:13:15;;;;;;;0.88;0.88;;;;;;;5.13;93.60;98077.91;5079353;28;20204;-75
2023/12/20 05:15:42;;;;;;;0.90;0.90;;;;;;;5.20;93.28;98081.59;5081412;28;20781;-75
2023/12/20 05:18:08;;;;;;;1.20;1.10;;;;;;;5.17;93.41;98081.09;5076761;28;20219;-75
2023/12/20 05:20:37;;;;;;;1.15;1.05;;;;;;;5.17;93.58;98081.09;5081098;28;20202;-76
2023/12/20 05:23:04;;;;;;;1.65;1.20;;;;;;;5.16;94.44;98080.28;5080676;28;20262;-74
2023/12/20 05:25:30;;;;;;;1.60;1.50;;;;;;;5.25;94.49;98089.13;5079724;28;20223;-73
2023/12/20 05:27:58;;;;;;;1.38;1.27;;;;;;;4.98;94.98;98082.25;5079670;28;20227;-73
2023/12/20 05:30:26;;;;;;;1.70;1.60;;;;;;;5.11;95.90;98089.81;5079974;28;20762;-74
2023/12/20 05:32:53;;;;;;;1.92;1.80;;;;;;;5.20;96.46;98096.88;5075343;28;20864;-73
2023/12/20 05:35:20;;;;;;;2.00;1.90;;;;;;;5.19;96.73;98101.41;5081571;28;20207;-74
2023/12/20 05:37:46;;;;;;;2.35;2.05;;;;;;;5.20;96.83;98100.38;5081121;28;20717;-74
2023/12/20 05:40:13;;;;;;;2.67;2.47;;;;;;;5.20;97.25;98103.06;5090165;28;20236;-74
2023/12/20 05:42:39;;;;;;;2.70;2.50;;;;;;;5.15;97.33;98108.09;5098499;28;20248;-73
2023/12/20 05:45:07;;;;;;;2.88;2.67;;;;;;;5.22;97.09;98109.09;5080554;28;20223;-74
2023/12/20 05:47:35;;;;;;;3.20;3.00;;;;;;;5.13;97.39;98114.63;5080488;28;20232;-74
2023/12/20 05:50:01;;;;;;;3.22;3.03;;;;;;;5.20;97.59;98123.69;5078337;28;20304;-74
2023/12/20 05:52:28;;;;;;;2.75;2.55;;;;;;;5.15;97.77;98128.72;5081063;28;20645;-74
2023/12/20 05:54:55;;;;;;;3.20;2.90;;;;;;;5.27;97.31;98127.38;5082509;28;20295;-74
2023/12/20 05:57:23;;;;;;;2.80;2.60;;;;;;;5.56;96.15;98124.19;5115036;27;20212;-81
2023/12/20 05:59:51;;;;;;;2.83;2.63;;;;;;;5.61;95.11;98132.56;5080384;28;20634;-76
2023/12/20 06:02:17;;;;;;;2.88;2.67;;;;;;;5.82;93.26;98140.13;5082533;28;20226;-78
2023/12/20 06:04:45;;;;;;;2.70;2.50;;;;;;;5.62;94.71;98153.06;5081278;28;20299;-79
2023/12/20 06:07:13;;;;;;;2.75;2.55;;;;;;;5.46;95.70;98153.91;5082632;28;20214;-79
2023/12/20 06:09:39;;;;;;;2.30;2.10;;;;;;;5.63;95.07;98150.19;5082730;28;20258;-79
2023/12/20 06:12:10;;;;;;;2.50;2.30;;;;;;;5.51;95.86;98148.03;5081674;28;20288;-79
2023/12/20 06:14:36;;;;;;;2.20;2.10;;;;;;;5.44;96.32;98161.28;5084046;28;20202;-78
2023/12/20 06:17:03;;;;;;;2.30;2.20;;;;;;;5.53;96.13;98156.72;5086014;28;20599;-79
2023/12/20 06:19:30;;;;;;;2.60;2.40;;;;;;;5.47;96.42;98158.28;5083889;28;20287;-79
2023/12/20 06:21:58;;;;;;;2.75;2.55;;;;;;;5.47;96.63;98157.44;5083817;28;20302;-83
2023/12/20 06:24:27;;;;;;;3.10;2.90;;;;;;;5.38;97.02;98154.72;5109755;27;20208;-75
2023/12/20 06:26:54;;;;;;;2.45;2.22;;;;;;;5.51;96.95;98148.88;5079154;28;20265;-73
2023/12/20 06:29:20;;;;;;;2.90;2.70;;;;;;;5.47;97.10;98141.31;5078362;28;20287;-81
2023/12/20 06:31:47;;;;;;;3.42;3.13;;;;;;;5.43;97.55;98148.03;5078224;28;20227;-74
2023/12/20 06:34:14;;;;;;;3.67;3.38;;;;;;;5.33;98.01;98157.06;5077048;28;20238;-73
2023/12/20 06:36:41;;;;;;;3.75;3.45;;;;;;;5.32;97.96;98155.38;5077529;28;20260;-74
2023/12/20 06:39:09;;;;;;;3.60;3.40;;;;;;;5.36;97.44;98159.41;5079289;28;20652;-73
2023/12/20 06:41:35;;;;;;;3.75;3.50;;;;;;;5.44;97.26;98165.81;5112643;27;20203;-73
2023/12/20 06:44:02;;;;;;;3.50;3.30;;;;;;;5.38;97.38;98159.25;5074848;28;20261;-73
2023/12/20 06:46:28;;;;;;;4.05;3.75;;;;;;;5.50;96.37;98162.47;5078973;28;20286;-73
2023/12/20 06:48:55;;;;;;;4.80;4.45;;;;;;;5.39;96.51;98164.47;5077266;28;20291;-72
2023/12/20 06:51:25;;;;;;;5.30;4.80;;;;;;;5.33;96.68;98162.44;5077415;28;20222;-73
2023/12/20 06:53:51;;;;;;;5.25;4.85;;;;;;;5.32;97.23;98166.13;5079507;28;20200;-74
2023/12/20 06:56:19;;;;;;;4.80;4.47;;;;;;;5.22;96.76;98143.97;5077696;28;20250;-75
2023/12/20 06:58:46;;;;;;;5.38;4.97;;;;;;;5.47;96.48;98174.38;5079670;28;20303;-74
2023/12/20 07:01:12;;;;;;;5.93;5.53;;;;;;;5.52;95.57;98173.88;5111822;27;20727;-74
2023/12/20 07:03:39;;;;;;;5.30;4.80;;;;;;;5.51;96.27;98185.63;5088698;28;20653;-73
2023/12/20 07:06:06;;;;;;;5.82;5.43;;;;;;;5.48;95.74;98185.94;5115650;27;20654;-73
2023/12/20 07:08:32;;;;;;;5.85;5.38;;;;;;;5.41;95.96;98180.41;5080566;28;20808;-72
2023/12/20 07:11:00;;;;;;;6.47;6.07;;;;;;;5.47;95.70;98187.78;5114691;27;20224;-74
2023/12/20 07:13:29;;;;;;;6.88;6.38;;;;;;;5.53;95.64;98192.47;5084522;28;20675;-73
2023/12/20 07:15:56;;;;;;;7.00;6.50;;;;;;;5.37;95.71;98204.03;5081777;28;20287;-73
2023/12/20 07:18:22;;;;;;;7.47;6.82;;;;;;;5.36;96.94;98193.47;5083475;28;20299;-75
2023/12/20 07:20:49;;;;;;;7.68;7.07;;;;;;;5.44;96.34;98206.06;5082620;28;20196;-73
2023/12/20 07:23:17;;;;;;;7.40;6.80;;;;;;;5.28;97.34;98218.44;5082110;28;20228;-74
2023/12/20 07:25:43;;;;;;;7.70;7.10;;;;;;;5.29;97.58;98214.75;5115377;27;20535;-73
2023/12/20 07:28:10;;;;;;;7.90;7.30;;;;;;;5.30;97.40;98215.59;5081432;28;20290;-72
2023/12/20 07:30:38;;;;;;;8.07;7.47;;;;;;;5.35;97.06;98208.72;5080081;28;20216;-73
2023/12/20 07:33:07;;;;;;;7.65;6.97;;;;;;;5.33;96.78;98221.47;5083515;28;20247;-73
2023/12/20 07:35:34;;;;;;;6.97;6.38;;;;;;;5.36;96.15;98229.19;5083105;28;20311;-73
2023/12/20 07:38:02;;;;;;;6.80;6.30;;;;;;;5.32;94.21;98227.84;5082227;28;20625;-73
2023/12/20 07:40:28;;;;;;;7.05;6.55;;;;;;;5.39;94.16;98225.34;5081039;28;20199;-73
2023/12/20 07:42:55;;;;;;;6.68;6.18;;;;;;;5.29;93.84;98224.63;5082527;28;20207;-73
2023/12/20 07:45:21;;;;;;;5.97;5.57;;;;;;;5.35;93.16;98235.56;5080914;28;20284;-73
2023/12/20 07:47:50;;;;;;;5.60;5.20;;;;;;;5.30;92.79;98232.53;5082033;28;21054;-74
2023/12/20 07:50:17;;;;;;;5.53;5.22;;;;;;;5.16;91.71;98197.47;5097622;28;20210;-73
2023/12/20 07:52:43;;;;;;;5.13;4.80;;;;;;;5.16;91.81;98235.88;5082045;28;20207;-73
2023/12/20 07:55:10;;;;;;;4.80;4.40;;;;;;;5.25;91.45;98239.38;5078689;28;20215;-73
2023/12/20 07:57:36;;;;;;;4.93;4.60;;;;;;;5.08;91.54;98241.19;5082282;28;20294;-73
2023/12/20 08:00:05;;;;;;;4.78;4.40;;;;;;;5.14;90.71;98251.28;5081530;28;20290;-72
2023/12/20 08:02:32;;;;;;;5.70;5.30;;;;;;;5.10;90.63;98246.41;5082326;28;20285;-72
2023/12/20 08:05:00;;;;;;;5.60;5.20;;;;;;;4.92;90.60;98238.44;5080928;28;20295;-72
2023/12/20 08:07:26;;;;;;;5.25;4.85;;;;;;;4.93;90.66;98245.47;5114457;27;20250;-72
2023/12/20 08:09:54;;;;;;;5.47;5.07;;;;;;;4.94;90.47;98249.84;5082023;28;20269;-72
2023/12/20 08:12:21;;;;;;;5.25;4.85;;;;;;;4.93;90.43;98251.69;5080959;28;20227;-73
2023/12/20 08:14:48;;;;;;;4.95;4.55;;;;;;;4.93;90.13;98248.16;5080256;28;20278;-72
2023/12/20 08:17:16;;;;;;;5.05;4.65;;;;;;;4.82;90.86;98251.16;5080832;28;20566;-74
2023/12/20 08:19:42;;;;;;;4.25;3.95;;;;;;;4.82;90.33;98259.19;5077721;28;21135;-72
2023/12/20 08:22:10;;;;;;;4.53;4.22;;;;;;;4.87;90.00;98270.28;5080505;28;20231;-73
2023/12/20 08:24:37;;;;;;;4.78;4.35;;;;;;;4.85;89.99;98264.25;5080979;28;20727;-73
2023/12/20 08:27:04;;;;;;;5.38;4.55;;;;;;;4.95;89.22;98260.41;5079155;28;20289;-73
2023/12/20 08:29:31;;;;;;;4.88;4.45;;;;;;;4.94;89.14;98263.25;5079085;28;20291;-73
2023/12/20 08:31:57;;;;;;;4.20;3.90;;;;;;;5.06;88.57;98260.13;5081249;28;20263;-70
2023/12/20 08:34:24;;;;;;;5.88;4.40;;;;;;;5.13;88.55;98271.06;5114703;27;20291;-73
2023/12/20 08:36:51;;;;;;;4.43;4.03;;;;;;;5.06;88.21;98280.75;5081156;28;20287;-73
2023/12/20 08:39:19;;;;;;;3.95;3.60;;;;;;;5.21;87.69;98284.47;5113121;27;20215;-73
2023/12/20 08:41:46;;;;;;;4.20;3.90;;;;;;;5.11;87.03;98286.47;5082518;28;20206;-73
2023/12/20 08:44:13;;;;;;;4.15;3.75;;;;;;;5.38;86.44;98280.84;5098569;28;20668;-74
2023/12/20 08:46:40;;;;;;;4.45;3.88;;;;;;;5.27;86.09;98291.88;5079888;28;20214;-73
2023/12/20 08:49:07;;;;;;;4.07;3.65;;;;;;;5.39;86.00;98295.13;5077554;28;20763;-73
2023/12/20 08:51:33;;;;;;;3.88;3.58;;;;;;;5.55;85.69;98299.69;5071347;28;20247;-75
2023/12/20 08:54:00;;;;;;;3.60;3.30;;;;;;;6.08;83.45;98302.00;5078033;28;20677;-74
2023/12/20 08:56:28;;;;;;;3.35;3.15;;;;;;;6.86;80.45;98296.00;5076116;28;20307;-74
2023/12/20 08:58:54;;;;;;;2.90;2.60;;;;;;;7.08;77.78;98292.59;5078841;28;20240;-74
2023/12/20 09:01:21;;;;;;;2.92;2.72;;;;;;;8.04;75.40;98290.34;5079496;28;20299;-74
2023/12/20 09:03:48;;;;;;;3.60;2.55;;;;;;;8.73;71.28;98283.03;5079938;28;20238;-74
2023/12/20 09:06:15;;;;;;;2.90;2.70;;;;;;;8.95;69.80;98281.28;5079565;28;20555;-75
2023/12/20 09:08:42;;;;;;;3.38;3.05;;;;;;;8.97;69.85;98281.91;5080668;28;20254;-73
2023/12/20 09:11:09;;;;;;;3.05;2.78;;;;;;;9.05;68.91;98275.59;5074825;28;20302;-74
2023/12/20 09:13:37;;;;;;;3.08;2.88;;;;;;;9.11;67.38;98285.63;5078059;28;20211;-74
2023/12/20 09:16:04;;;;;;;2.95;2.65;;;;;;;9.12;67.88;98271.09;5079445;28;20945;-74
2023/12/20 09:18:32;;;;;;;2.50;2.30;;;;;;;9.41;66.01;98271.09;5078344;28;20215;-74
2023/12/20 09:20:58;;;;;;;2.33;2.15;;;;;;;9.67;64.44;98275.97;5076872;28;20204;-74
2023/12/20 09:23:26;;;;;;;2.20;2.10;;;;;;;10.04;63.75;98266.78;5078345;28;20287;-75
2023/12/20 09:25:53;;;;;;;2.33;2.13;;;;;;;10.25;63.71;98271.38;5077010;28;20294;-74
2023/12/20 09:28:19;;;;;;;3.78;2.60;;;;;;;9.98;63.40;98286.50;5109348;27;20319;-75
2023/12/20 09:30:49;;;;;;;1.90;1.70;;;;;;;9.35;64.61;98282.66;5075278;28;20279;-74
2023/12/20 09:33:16;;;;;;;2.30;2.00;;;;;;;9.40;65.44;98273.97;5078069;28;20330;-73
2023/12/20 09:35:42;;;;;;;3.40;1.90;;;;;;;9.30;63.69;98276.97;5075825;28;20291;-74
2023/12/20 09:38:09;;;;;;;2.85;1.95;;;;;;;8.93;64.13;98283.31;5078506;28;20632;-74
2023/12/20 09:40:36;;;;;;;2.75;1.67;;;;;;;8.85;64.52;98296.88;5077635;28;20323;-74
2023/12/20 09:43:05;;;;;;;1.70;1.60;;;;;;;9.05;63.76;98302.59;5077337;28;21008;-74
2023/12/20 09:45:32;;;;;;;3.05;1.63;;;;;;;8.61;62.04;98252.13;5108686;27;20204;-73
2023/12/20 09:48:00;;;;;;;3.50;1.73;;;;;;;9.01;62.67;98306.69;5111733;27;21260;-73
2023/12/20 09:50:27;;;;;;;1.50;1.40;;;;;;;8.71;62.48;98320.16;5086532;28;20203;-73
2023/12/20 09:52:56;;;;;;;3.03;1.73;;;;;;;8.71;62.32;98306.66;5075538;28;20642;-74
2023/12/20 09:55:22;;;;;;;3.50;1.60;;;;;;;9.05;61.42;98300.72;5076044;28;20780;-76
2023/12/20 09:57:49;;;;;;;1.63;1.50;;;;;;;8.63;61.22;98298.63;5078264;28;20192;-76
2023/12/20 10:00:17;;;;;;;2.83;1.40;;;;;;;8.66;61.12;98284.78;5076397;28;20282;-78
2023/12/20 10:02:48;;;;;;;3.03;1.38;;;;;;;8.66;62.44;98297.44;5068394;28;20200;-76
2023/12/20 10:05:19;;;;;;;3.45;1.77;;;;;;;8.91;61.11;98317.75;5073024;28;20272;-76
2023/12/20 10:07:46;;;;;;;2.42;1.30;;;;;;;8.72;62.27;98311.03;5075517;28;20370;-78
2023/12/20 10:10:14;;;;;;;3.75;1.50;;;;;;;8.88;61.86;98303.78;5069960;28;20753;-79
2023/12/20 10:12:41;;;;;;;3.72;1.50;;;;;;;8.38;62.40;98321.47;5073067;28;20318;-79
2023/12/20 10:15:10;;;;;;;3.67;1.67;;;;;;;8.35;61.61;98274.13;5078682;28;20224;-79
2023/12/20 10:17:37;;;;;;;3.95;1.65;;;;;;;8.47;62.63;98297.94;5068210;28;20204;-79
2023/12/20 10:20:09;;;;;;;3.33;1.70;;;;;;;8.81;62.43;98300.13;5071849;28;20204;-79
2023/12/20 10:22:38;;;;;;;2.20;1.63;;;;;;;8.65;61.49;98298.47;5083908;28;20285;-79
2023/12/20 10:25:05;;;;;;;3.70;1.40;;;;;;;9.20;60.89;98294.47;5077824;28;20212;-79
2023/12/20 10:27:31;;;;;;;4.22;1.98;;;;;;;8.43;62.36;98296.66;5075019;28;21164;-79
2023/12/20 10:29:59;;;;;;;4.60;1.63;;;;;;;7.66;64.44;98285.91;5078615;28;20264;-79
2023/12/20 10:32:27;;;;;;;4.25;1.58;;;;;;;7.37;65.93;98284.72;5078830;28;20647;-79
2023/12/20 10:34:54;;;;;;;3.78;1.80;;;;;;;7.88;64.83;98282.38;5077426;28;20204;-80
2023/12/20 10:37:21;;;;;;;3.50;1.90;;;;;;;8.15;64.53;98285.53;5074565;28;20292;-77
2023/12/20 10:39:51;;;;;;;3.88;1.98;;;;;;;7.97;63.77;98281.31;5110244;27;20905;-78
2023/12/20 10:42:19;;;;;;;4.78;1.70;;;;;;;8.20;63.72;98269.66;5071931;28;20200;-77
2023/12/20 10:44:46;;;;;;;3.30;1.63;;;;;;;8.71;62.11;98285.06;5076510;28;20313;-77
2023/12/20 10:47:14;;;;;;;5.00;2.05;;;;;;;8.27;62.87;98282.25;5077993;28;20207;-77
2023/12/20 10:49:41;;;;;;;3.35;1.83;;;;;;;7.57;63.87;98278.88;5077788;28;20416;-76
2023/12/20 10:52:08;;;;;;;4.05;1.52;;;;;;;7.32;65.16;98283.56;5093290;28;20281;-78
2023/12/20 10:54:35;;;;;;;3.25;1.50;;;;;;;7.88;63.52;98281.53;5081121;28;20211;-76
2023/12/20 10:57:06;;;;;;;4.28;1.67;;;;;;;8.11;61.06;98270.78;5087842;28;20239;-76
2023/12/20 10:59:34;;;;;;;4.22;1.67;;;;;;;8.90;59.43;98272.03;5085043;28;20218;-78
2023/12/20 11:02:05;;;;;;;3.00;1.40;;;;;;;8.34;58.30;98234.69;5092451;28;20199;-76
2023/12/20 11:04:37;;;;;;;2.28;1.20;;;;;;;8.16;58.82;98271.88;5089843;28;20204;-77
2023/12/20 11:07:09;;;;;;;6.85;1.67;;;;;;;7.97;59.89;98265.13;5089598;28;20387;-76
2023/12/20 11:09:39;;;;;;;2.58;1.40;;;;;;;7.30;60.72;98264.88;5084105;28;20256;-75
2023/12/20 11:12:11;;;;;;;3.65;1.30;;;;;;;6.95;62.59;98274.28;5087819;28;20635;-74
2023/12/20 11:14:42;;;;;;;4.60;1.65;;;;;;;6.72;63.21;98276.88;5070813;28;20294;-77
2023/12/20 11:17:09;;;;;;;3.03;1.58;;;;;;;6.76;63.72;98212.84;5076640;28;20231;-74
2023/12/20 11:19:48;;;;;;;4.07;1.80;;;;;;;7.11;61.71;98268.00;5094536;28;20200;-74
2023/12/20 11:22:15;;;;;;;2.38;1.40;;;;;;;6.95;62.11;98257.31;5075580;28;20216;-74
2023/12/20 11:24:45;;;;;;;4.35;1.52;;;;;;;6.74;63.00;98269.47;5076114;28;20282;-76
2023/12/20 11:27:16;;;;;;;3.17;1.52;;;;;;;6.61;64.49;98271.00;5078941;28;20207;-75
2023/12/20 11:29:53;;;;;;;4.00;1.77;;;;;;;6.53;65.72;98260.28;5064247;28;20226;-76
2023/12/20 11:32:29;;;;;;;5.05;1.98;;;;;;;6.33;67.20;98262.50;5075524;28;20256;-74
2023/12/20 11:34:56;;;;;;;4.20;1.55;;;;;;;6.14;68.15;98263.72;5075739;28;20199;-75
2023/12/20 11:37:29;;;;;;;3.05;1.90;;;;;;;5.99;69.55;98268.06;5111434;28;20299;-75
2023/12/20 11:39:56;;;;;;;3.83;2.20;;;;;;;5.96;68.85;98263.84;5107550;28;20280;-76
2023/12/20 11:42:24;;;;;;;4.90;1.90;;;;;;;5.94;68.27;98246.22;5077540;28;20210;-75